sensor_id;sensor_type;location;lat;lon;timestamp;pressure;altitude;pressure_sealevel;temperature;humidity
35655;BME280;21773;50.010;19.972;2023-05-07T00:02:02;98854.13;;;16.93;59.88
35655;BME280;21773;50.010;19.972;2023-05-07T00:05:07;98857.66;;;16.93;59.89
35655;BME280;21773;50.010;19.972;2023-05-07T00:08:11;98856.63;;;16.99;59.91
35655;BME280;21773;50.010;19.972;2023-05-07T00:11:14;98857.16;;;17.01;59.88
35655;BME280;21773;50.010;19.972;2023-05-07T00:14:17;98861.53;;;17.02;59.80
35655;BME280;21773;50.010;19.972;2023-05-07T00:17:22;98858.81;;;17.07;59.71
35655;BME280;21773;50.010;19.972;2023-05-07T00:20:26;98855.31;;;17.12;59.85
35655;BME280;21773;50.010;19.972;2023-05-07T00:23:29;98862.69;;;17.16;59.56
35655;BME280;21773;50.010;19.972;2023-05-07T00:26:33;98861.84;;;17.11;59.63
35655;BME280;21773;50.010;19.972;2023-05-07T00:29:36;98868.69;;;17.18;59.68
35655;BME280;21773;50.010;19.972;2023-05-07T00:32:41;98866.50;;;17.20;59.57
35655;BME280;21773;50.010;19.972;2023-05-07T00:35:44;98870.88;;;17.21;59.68
35655;BME280;21773;50.010;19.972;2023-05-07T00:38:47;98863.78;;;17.20;59.29
35655;BME280;21773;50.010;19.972;2023-05-07T00:41:51;98863.75;;;17.15;59.51
35655;BME280;21773;50.010;19.972;2023-05-07T00:44:54;98878.22;;;17.21;59.46
35655;BME280;21773;50.010;19.972;2023-05-07T00:48:00;98872.78;;;17.21;59.36
35655;BME280;21773;50.010;19.972;2023-05-07T00:51:04;98877.94;;;17.17;59.71
35655;BME280;21773;50.010;19.972;2023-05-07T00:54:07;98875.47;;;17.16;59.35
35655;BME280;21773;50.010;19.972;2023-05-07T00:57:11;98879.56;;;17.13;59.59
35655;BME280;21773;50.010;19.972;2023-05-07T01:00:15;98878.72;;;17.08;59.36
35655;BME280;21773;50.010;19.972;2023-05-07T01:03:20;98879.50;;;17.03;59.08
35655;BME280;21773;50.010;19.972;2023-05-07T01:06:25;98886.28;;;17.01;59.21
35655;BME280;21773;50.010;19.972;2023-05-07T01:09:30;98860.31;;;16.83;59.16
35655;BME280;21773;50.010;19.972;2023-05-07T01:12:34;98885.16;;;16.92;58.99
35655;BME280;21773;50.010;19.972;2023-05-07T01:15:38;98890.06;;;16.89;59.18
35655;BME280;21773;50.010;19.972;2023-05-07T01:18:44;98893.03;;;16.88;59.07
35655;BME280;21773;50.010;19.972;2023-05-07T01:21:51;98882.69;;;16.85;59.15
35655;BME280;21773;50.010;19.972;2023-05-07T01:24:59;98876.13;;;16.81;59.12
35655;BME280;21773;50.010;19.972;2023-05-07T01:28:05;98887.81;;;16.81;59.09
35655;BME280;21773;50.010;19.972;2023-05-07T01:31:12;98890.22;;;16.78;59.31
35655;BME280;21773;50.010;19.972;2023-05-07T01:34:18;98889.94;;;16.74;58.80
35655;BME280;21773;50.010;19.972;2023-05-07T01:37:23;98886.94;;;16.71;58.86
35655;BME280;21773;50.010;19.972;2023-05-07T01:40:29;98892.91;;;16.73;58.75
35655;BME280;21773;50.010;19.972;2023-05-07T01:43:33;98895.66;;;16.73;58.82
35655;BME280;21773;50.010;19.972;2023-05-07T01:46:37;98898.06;;;16.69;59.34
35655;BME280;21773;50.010;19.972;2023-05-07T01:49:41;98893.16;;;16.66;59.53
35655;BME280;21773;50.010;19.972;2023-05-07T01:52:44;98896.97;;;16.65;59.76
35655;BME280;21773;50.010;19.972;2023-05-07T01:55:49;98901.28;;;16.61;59.25
35655;BME280;21773;50.010;19.972;2023-05-07T01:58:55;98893.06;;;16.56;59.32
35655;BME280;21773;50.010;19.972;2023-05-07T02:01:58;98902.78;;;16.52;59.16
35655;BME280;21773;50.010;19.972;2023-05-07T02:05:03;98900.81;;;16.42;58.93
35655;BME280;21773;50.010;19.972;2023-05-07T02:08:07;98898.09;;;16.42;58.99
35655;BME280;21773;50.010;19.972;2023-05-07T02:11:12;98895.84;;;16.34;59.14
35655;BME280;21773;50.010;19.972;2023-05-07T02:14:15;98909.69;;;16.33;59.17
35655;BME280;21773;50.010;19.972;2023-05-07T02:17:18;98903.38;;;16.27;59.36
35655;BME280;21773;50.010;19.972;2023-05-07T02:20:22;98912.59;;;16.21;58.94
35655;BME280;21773;50.010;19.972;2023-05-07T02:23:25;98900.56;;;16.12;59.03
35655;BME280;21773;50.010;19.972;2023-05-07T02:26:30;98907.25;;;16.04;59.16
35655;BME280;21773;50.010;19.972;2023-05-07T02:29:33;98915.38;;;15.99;59.38
35655;BME280;21773;50.010;19.972;2023-05-07T02:32:37;98921.56;;;15.95;59.16
35655;BME280;21773;50.010;19.972;2023-05-07T02:35:40;98924.22;;;15.90;59.16
35655;BME280;21773;50.010;19.972;2023-05-07T02:38:45;98914.94;;;15.86;59.14
35655;BME280;21773;50.010;19.972;2023-05-07T02:41:51;98917.91;;;15.84;59.26
35655;BME280;21773;50.010;19.972;2023-05-07T02:44:55;98914.88;;;15.81;59.36
35655;BME280;21773;50.010;19.972;2023-05-07T02:47:58;98920.28;;;15.76;58.99
35655;BME280;21773;50.010;19.972;2023-05-07T02:51:03;98923.75;;;15.71;59.10
35655;BME280;21773;50.010;19.972;2023-05-07T02:54:09;98924.00;;;15.70;59.23
35655;BME280;21773;50.010;19.972;2023-05-07T02:57:14;98929.72;;;15.68;59.01
35655;BME280;21773;50.010;19.972;2023-05-07T03:00:19;98925.59;;;15.66;58.90
35655;BME280;21773;50.010;19.972;2023-05-07T03:03:35;98926.41;;;15.66;58.88
35655;BME280;21773;50.010;19.972;2023-05-07T03:06:39;98929.94;;;15.67;58.68
35655;BME280;21773;50.010;19.972;2023-05-07T03:09:42;98936.16;;;15.62;58.36
35655;BME280;21773;50.010;19.972;2023-05-07T03:12:47;98943.22;;;15.63;58.31
35655;BME280;21773;50.010;19.972;2023-05-07T03:15:51;98944.31;;;15.62;58.39
35655;BME280;21773;50.010;19.972;2023-05-07T03:18:55;98941.50;;;15.57;58.30
35655;BME280;21773;50.010;19.972;2023-05-07T03:21:59;98945.00;;;15.52;58.40
35655;BME280;21773;50.010;19.972;2023-05-07T03:25:02;98948.25;;;15.54;58.76
35655;BME280;21773;50.010;19.972;2023-05-07T03:28:07;98950.19;;;15.54;58.56
35655;BME280;21773;50.010;19.972;2023-05-07T03:31:16;98950.44;;;15.52;58.89
35655;BME280;21773;50.010;19.972;2023-05-07T03:34:20;98958.88;;;15.56;58.68
35655;BME280;21773;50.010;19.972;2023-05-07T03:37:24;98958.06;;;15.55;58.53
35655;BME280;21773;50.010;19.972;2023-05-07T03:40:28;98959.66;;;15.51;58.43
35655;BME280;21773;50.010;19.972;2023-05-07T03:43:32;98968.38;;;15.53;58.53
35655;BME280;21773;50.010;19.972;2023-05-07T03:46:41;98974.25;;;15.50;58.60
35655;BME280;21773;50.010;19.972;2023-05-07T03:49:45;98982.09;;;15.47;58.20
35655;BME280;21773;50.010;19.972;2023-05-07T03:52:50;98977.97;;;15.44;58.58
35655;BME280;21773;50.010;19.972;2023-05-07T03:55:56;98968.63;;;15.35;58.54
35655;BME280;21773;50.010;19.972;2023-05-07T03:59:01;98979.50;;;15.35;58.34
35655;BME280;21773;50.010;19.972;2023-05-07T04:02:05;98979.69;;;15.29;58.44
35655;BME280;21773;50.010;19.972;2023-05-07T04:05:08;99001.66;;;15.27;58.14
35655;BME280;21773;50.010;19.972;2023-05-07T04:08:14;98990.56;;;15.29;57.86
35655;BME280;21773;50.010;19.972;2023-05-07T04:11:21;98993.50;;;15.27;57.67
35655;BME280;21773;50.010;19.972;2023-05-07T04:14:26;98997.56;;;15.25;57.46
35655;BME280;21773;50.010;19.972;2023-05-07T04:17:29;98995.25;;;15.16;57.46
35655;BME280;21773;50.010;19.972;2023-05-07T04:20:34;99003.72;;;15.20;57.61
35655;BME280;21773;50.010;19.972;2023-05-07T04:23:41;98995.84;;;15.18;57.36
35655;BME280;21773;50.010;19.972;2023-05-07T04:26:46;99008.59;;;15.18;57.67
35655;BME280;21773;50.010;19.972;2023-05-07T04:29:51;99007.75;;;15.17;57.16
35655;BME280;21773;50.010;19.972;2023-05-07T04:32:58;99011.22;;;15.13;57.22
35655;BME280;21773;50.010;19.972;2023-05-07T04:36:04;99012.19;;;15.07;57.61
35655;BME280;21773;50.010;19.972;2023-05-07T04:39:13;99019.53;;;15.06;57.19
35655;BME280;21773;50.010;19.972;2023-05-07T04:42:19;99024.41;;;15.04;57.01
35655;BME280;21773;50.010;19.972;2023-05-07T04:45:24;99032.19;;;15.01;57.17
35655;BME280;21773;50.010;19.972;2023-05-07T04:48:29;99047.66;;;15.00;57.16
35655;BME280;21773;50.010;19.972;2023-05-07T04:51:33;99034.06;;;15.00;57.51
35655;BME280;21773;50.010;19.972;2023-05-07T04:54:37;99036.78;;;15.00;57.64
35655;BME280;21773;50.010;19.972;2023-05-07T04:57:42;99042.22;;;15.00;57.57
35655;BME280;21773;50.010;19.972;2023-05-07T05:00:48;99050.03;;;14.97;57.78
35655;BME280;21773;50.010;19.972;2023-05-07T05:03:52;99056.06;;;14.99;57.49
35655;BME280;21773;50.010;19.972;2023-05-07T05:06:56;99053.59;;;14.97;57.70
35655;BME280;21773;50.010;19.972;2023-05-07T05:10:01;99057.03;;;14.93;57.84
35655;BME280;21773;50.010;19.972;2023-05-07T05:13:07;99066.75;;;14.89;58.16
35655;BME280;21773;50.010;19.972;2023-05-07T05:16:12;99065.09;;;14.88;58.27
35655;BME280;21773;50.010;19.972;2023-05-07T05:19:16;99067.41;;;14.79;58.15
35655;BME280;21773;50.010;19.972;2023-05-07T05:22:19;99073.88;;;14.78;58.20
35655;BME280;21773;50.010;19.972;2023-05-07T05:25:23;99070.84;;;14.74;58.19
35655;BME280;21773;50.010;19.972;2023-05-07T05:28:27;99078.16;;;14.74;58.25
35655;BME280;21773;50.010;19.972;2023-05-07T05:31:32;99077.75;;;14.65;57.95
35655;BME280;21773;50.010;19.972;2023-05-07T05:34:36;99087.50;;;14.66;58.53
35655;BME280;21773;50.010;19.972;2023-05-07T05:37:40;99089.16;;;14.67;58.73
35655;BME280;21773;50.010;19.972;2023-05-07T05:40:44;99084.06;;;14.71;58.70
35655;BME280;21773;50.010;19.972;2023-05-07T05:43:48;99085.47;;;14.73;58.66
35655;BME280;21773;50.010;19.972;2023-05-07T05:46:54;99096.94;;;14.76;58.52
35655;BME280;21773;50.010;19.972;2023-05-07T05:49:59;99100.53;;;14.81;58.21
35655;BME280;21773;50.010;19.972;2023-05-07T05:53:03;99116.47;;;14.78;57.68
35655;BME280;21773;50.010;19.972;2023-05-07T05:56:06;99111.28;;;14.76;58.05
35655;BME280;21773;50.010;19.972;2023-05-07T05:59:11;99118.88;;;14.74;57.44
35655;BME280;21773;50.010;19.972;2023-05-07T06:02:16;99124.84;;;14.76;57.71
35655;BME280;21773;50.010;19.972;2023-05-07T06:05:20;99127.41;;;14.66;57.09
35655;BME280;21773;50.010;19.972;2023-05-07T06:08:29;99126.22;;;14.62;57.06
35655;BME280;21773;50.010;19.972;2023-05-07T06:11:33;99134.63;;;14.60;56.79
35655;BME280;21773;50.010;19.972;2023-05-07T06:14:36;99132.38;;;14.57;57.04
35655;BME280;21773;50.010;19.972;2023-05-07T06:17:42;99145.38;;;14.55;56.94
35655;BME280;21773;50.010;19.972;2023-05-07T06:20:45;99138.28;;;14.54;56.72
35655;BME280;21773;50.010;19.972;2023-05-07T06:23:57;99147.38;;;14.48;56.68
35655;BME280;21773;50.010;19.972;2023-05-07T06:27:01;99146.81;;;14.46;56.55
35655;BME280;21773;50.010;19.972;2023-05-07T06:30:07;99145.41;;;14.44;56.29
35655;BME280;21773;50.010;19.972;2023-05-07T06:33:12;99147.50;;;14.42;56.41
35655;BME280;21773;50.010;19.972;2023-05-07T06:36:16;99144.94;;;14.35;56.32
35655;BME280;21773;50.010;19.972;2023-05-07T06:39:20;99148.91;;;14.32;56.54
35655;BME280;21773;50.010;19.972;2023-05-07T06:42:26;99147.88;;;14.33;56.58
35655;BME280;21773;50.010;19.972;2023-05-07T06:45:33;99156.50;;;14.30;56.41
35655;BME280;21773;50.010;19.972;2023-05-07T06:48:40;99164.63;;;14.30;56.75
35655;BME280;21773;50.010;19.972;2023-05-07T06:51:43;99158.94;;;14.32;56.46
35655;BME280;21773;50.010;19.972;2023-05-07T06:54:47;99158.28;;;14.37;56.26
35655;BME280;21773;50.010;19.972;2023-05-07T06:57:52;99161.06;;;14.42;55.96
35655;BME280;21773;50.010;19.972;2023-05-07T07:00:57;99160.03;;;14.43;56.14
35655;BME280;21773;50.010;19.972;2023-05-07T07:04:03;99165.22;;;14.44;55.81
35655;BME280;21773;50.010;19.972;2023-05-07T07:07:07;99164.38;;;14.55;55.97
35655;BME280;21773;50.010;19.972;2023-05-07T07:10:11;99173.66;;;14.59;55.76
35655;BME280;21773;50.010;19.972;2023-05-07T07:13:14;99177.22;;;14.60;55.42
35655;BME280;21773;50.010;19.972;2023-05-07T07:16:18;99183.59;;;14.54;55.36
35655;BME280;21773;50.010;19.972;2023-05-07T07:19:24;99179.00;;;14.54;55.08
35655;BME280;21773;50.010;19.972;2023-05-07T07:22:29;99190.19;;;14.58;55.20
35655;BME280;21773;50.010;19.972;2023-05-07T07:25:33;99193.59;;;14.65;54.74
35655;BME280;21773;50.010;19.972;2023-05-07T07:28:42;99188.88;;;14.60;54.22
35655;BME280;21773;50.010;19.972;2023-05-07T07:31:49;99207.78;;;14.55;54.21
35655;BME280;21773;50.010;19.972;2023-05-07T07:34:55;99201.63;;;14.60;54.49
35655;BME280;21773;50.010;19.972;2023-05-07T07:37:59;99214.94;;;14.61;54.18
35655;BME280;21773;50.010;19.972;2023-05-07T07:41:04;99220.13;;;14.63;53.76
35655;BME280;21773;50.010;19.972;2023-05-07T07:44:08;99221.56;;;14.54;53.75
35655;BME280;21773;50.010;19.972;2023-05-07T07:47:19;99225.00;;;14.49;53.86
35655;BME280;21773;50.010;19.972;2023-05-07T07:50:25;99223.00;;;14.45;54.13
35655;BME280;21773;50.010;19.972;2023-05-07T07:53:47;99225.22;;;14.48;54.24
35655;BME280;21773;50.010;19.972;2023-05-07T07:56:52;99227.50;;;14.51;54.06
35655;BME280;21773;50.010;19.972;2023-05-07T07:59:55;99229.94;;;14.52;53.96
35655;BME280;21773;50.010;19.972;2023-05-07T08:02:59;99238.19;;;14.57;54.21
35655;BME280;21773;50.010;19.972;2023-05-07T08:06:08;99237.25;;;14.63;54.20
35655;BME280;21773;50.010;19.972;2023-05-07T08:09:12;99239.72;;;14.65;53.38
35655;BME280;21773;50.010;19.972;2023-05-07T08:12:16;99243.25;;;14.65;53.20
35655;BME280;21773;50.010;19.972;2023-05-07T08:15:19;99240.44;;;14.60;53.56
35655;BME280;21773;50.010;19.972;2023-05-07T08:18:24;99247.16;;;14.58;53.27
35655;BME280;21773;50.010;19.972;2023-05-07T08:21:34;99254.00;;;14.60;53.42
35655;BME280;21773;50.010;19.972;2023-05-07T08:24:37;99257.19;;;14.57;53.36
35655;BME280;21773;50.010;19.972;2023-05-07T08:27:41;99256.97;;;14.47;53.64
35655;BME280;21773;50.010;19.972;2023-05-07T08:30:44;99263.00;;;14.49;53.69
35655;BME280;21773;50.010;19.972;2023-05-07T08:33:48;99268.63;;;14.48;53.74
35655;BME280;21773;50.010;19.972;2023-05-07T08:36:54;99272.91;;;14.44;53.46
35655;BME280;21773;50.010;19.972;2023-05-07T08:39:59;99279.50;;;14.48;53.30
35655;BME280;21773;50.010;19.972;2023-05-07T08:43:08;99276.78;;;14.48;53.22
35655;BME280;21773;50.010;19.972;2023-05-07T08:46:17;99283.03;;;14.48;53.48
35655;BME280;21773;50.010;19.972;2023-05-07T08:49:22;99285.41;;;14.45;53.29
35655;BME280;21773;50.010;19.972;2023-05-07T08:52:28;99286.34;;;14.39;53.00
35655;BME280;21773;50.010;19.972;2023-05-07T08:55:32;99299.19;;;14.43;52.88
35655;BME280;21773;50.010;19.972;2023-05-07T08:58:36;99301.22;;;14.36;52.78
35655;BME280;21773;50.010;19.972;2023-05-07T09:01:40;99302.56;;;14.27;53.49
35655;BME280;21773;50.010;19.972;2023-05-07T09:04:43;99303.88;;;14.24;53.22
35655;BME280;21773;50.010;19.972;2023-05-07T09:07:48;99304.59;;;14.31;53.07
35655;BME280;21773;50.010;19.972;2023-05-07T09:10:56;99301.22;;;14.36;53.08
35655;BME280;21773;50.010;19.972;2023-05-07T09:13:59;99306.38;;;14.38;53.40
35655;BME280;21773;50.010;19.972;2023-05-07T09:17:10;99315.13;;;14.40;53.38
35655;BME280;21773;50.010;19.972;2023-05-07T09:20:13;99310.75;;;14.39;53.33
35655;BME280;21773;50.010;19.972;2023-05-07T09:23:20;99325.97;;;14.40;53.56
35655;BME280;21773;50.010;19.972;2023-05-07T09:26:24;99334.19;;;14.33;53.34
35655;BME280;21773;50.010;19.972;2023-05-07T09:29:30;99334.66;;;14.30;53.19
35655;BME280;21773;50.010;19.972;2023-05-07T09:32:39;99341.50;;;14.32;52.94
35655;BME280;21773;50.010;19.972;2023-05-07T09:35:51;99339.63;;;14.33;52.99
35655;BME280;21773;50.010;19.972;2023-05-07T09:38:59;99341.28;;;14.34;52.98
35655;BME280;21773;50.010;19.972;2023-05-07T09:42:04;99332.91;;;14.36;52.88
35655;BME280;21773;50.010;19.972;2023-05-07T09:45:10;99340.81;;;14.37;52.63
35655;BME280;21773;50.010;19.972;2023-05-07T09:48:17;99356.66;;;14.40;52.60
35655;BME280;21773;50.010;19.972;2023-05-07T09:51:28;99351.91;;;14.36;52.46
35655;BME280;21773;50.010;19.972;2023-05-07T09:54:36;99348.56;;;14.33;52.85
35655;BME280;21773;50.010;19.972;2023-05-07T09:57:42;99359.00;;;14.37;52.48
35655;BME280;21773;50.010;19.972;2023-05-07T10:00:48;99360.63;;;14.38;52.49
35655;BME280;21773;50.010;19.972;2023-05-07T10:03:53;99363.59;;;14.48;52.47
35655;BME280;21773;50.010;19.972;2023-05-07T10:06:57;99352.28;;;14.51;52.27
35655;BME280;21773;50.010;19.972;2023-05-07T10:10:05;99364.06;;;14.68;52.38
35655;BME280;21773;50.010;19.972;2023-05-07T10:13:13;99366.78;;;14.68;51.65
35655;BME280;21773;50.010;19.972;2023-05-07T10:16:21;99370.56;;;14.79;51.77
35655;BME280;21773;50.010;19.972;2023-05-07T10:19:26;99369.97;;;14.77;51.98
35655;BME280;21773;50.010;19.972;2023-05-07T10:22:37;99379.06;;;14.70;52.18
35655;BME280;21773;50.010;19.972;2023-05-07T10:25:43;99375.16;;;14.66;51.47
35655;BME280;21773;50.010;19.972;2023-05-07T10:29:02;99381.19;;;14.68;51.64
35655;BME280;21773;50.010;19.972;2023-05-07T10:32:18;99380.34;;;14.68;51.42
35655;BME280;21773;50.010;19.972;2023-05-07T10:35:25;99365.97;;;14.56;51.17
35655;BME280;21773;50.010;19.972;2023-05-07T10:38:29;99392.03;;;14.68;51.24
35655;BME280;21773;50.010;19.972;2023-05-07T10:41:36;99397.69;;;14.67;51.27
35655;BME280;21773;50.010;19.972;2023-05-07T10:44:40;99399.13;;;14.69;51.35
35655;BME280;21773;50.010;19.972;2023-05-07T10:48:09;99395.94;;;14.72;51.85
35655;BME280;21773;50.010;19.972;2023-05-07T10:51:19;99393.56;;;14.76;51.32
35655;BME280;21773;50.010;19.972;2023-05-07T10:54:30;99402.53;;;14.77;51.21
35655;BME280;21773;50.010;19.972;2023-05-07T10:57:44;99401.69;;;14.76;51.42
35655;BME280;21773;50.010;19.972;2023-05-07T11:00:56;99411.88;;;14.81;51.69
35655;BME280;21773;50.010;19.972;2023-05-07T11:04:13;99407.97;;;14.77;51.42
35655;BME280;21773;50.010;19.972;2023-05-07T11:07:27;99400.28;;;14.62;51.28
35655;BME280;21773;50.010;19.972;2023-05-07T11:10:53;99409.03;;;14.64;51.50
35655;BME280;21773;50.010;19.972;2023-05-07T11:14:09;99409.16;;;14.69;51.13
35655;BME280;21773;50.010;19.972;2023-05-07T11:17:22;99408.22;;;14.75;51.10
35655;BME280;21773;50.010;19.972;2023-05-07T11:20:54;99403.94;;;14.67;51.17
35655;BME280;21773;50.010;19.972;2023-05-07T11:24:06;99415.75;;;14.73;50.91
35655;BME280;21773;50.010;19.972;2023-05-07T11:27:36;99407.59;;;14.61;51.07
35655;BME280;21773;50.010;19.972;2023-05-07T11:30:42;99409.97;;;14.69;50.85
35655;BME280;21773;50.010;19.972;2023-05-07T11:33:49;99398.75;;;14.54;50.32
35655;BME280;21773;50.010;19.972;2023-05-07T11:36:55;99416.81;;;14.72;50.60
35655;BME280;21773;50.010;19.972;2023-05-07T11:40:12;99423.56;;;14.69;50.19
35655;BME280;21773;50.010;19.972;2023-05-07T11:43:16;99430.28;;;14.79;50.44
35655;BME280;21773;50.010;19.972;2023-05-07T11:46:21;99427.09;;;14.82;50.13
35655;BME280;21773;50.010;19.972;2023-05-07T11:49:26;99430.41;;;14.84;50.40
35655;BME280;21773;50.010;19.972;2023-05-07T11:52:31;99435.22;;;14.82;50.19
35655;BME280;21773;50.010;19.972;2023-05-07T11:55:35;99435.22;;;14.82;50.51
35655;BME280;21773;50.010;19.972;2023-05-07T11:58:39;99436.75;;;14.78;50.37
35655;BME280;21773;50.010;19.972;2023-05-07T12:01:46;99445.00;;;14.71;49.94
35655;BME280;21773;50.010;19.972;2023-05-07T12:04:50;99454.09;;;14.77;49.91
35655;BME280;21773;50.010;19.972;2023-05-07T12:07:56;99455.63;;;14.72;49.56
35655;BME280;21773;50.010;19.972;2023-05-07T12:10:59;99450.34;;;14.66;50.04
35655;BME280;21773;50.010;19.972;2023-05-07T12:14:02;99444.91;;;14.66;50.04
35655;BME280;21773;50.010;19.972;2023-05-07T12:17:13;99447.84;;;14.76;50.59
35655;BME280;21773;50.010;19.972;2023-05-07T12:20:18;99449.50;;;14.65;49.74
35655;BME280;21773;50.010;19.972;2023-05-07T12:23:22;99442.06;;;14.61;49.50
35655;BME280;21773;50.010;19.972;2023-05-07T12:26:25;99458.22;;;14.67;49.58
35655;BME280;21773;50.010;19.972;2023-05-07T12:29:29;99464.97;;;14.65;49.61
35655;BME280;21773;50.010;19.972;2023-05-07T12:32:33;99465.41;;;14.62;49.91
35655;BME280;21773;50.010;19.972;2023-05-07T12:35:40;99468.50;;;14.65;49.61
35655;BME280;21773;50.010;19.972;2023-05-07T12:38:44;99471.44;;;14.64;49.39
35655;BME280;21773;50.010;19.972;2023-05-07T12:41:54;99462.13;;;14.60;49.51
35655;BME280;21773;50.010;19.972;2023-05-07T12:44:57;99468.13;;;14.62;49.67
35655;BME280;21773;50.010;19.972;2023-05-07T12:48:02;99461.38;;;14.41;49.28
35655;BME280;21773;50.010;19.972;2023-05-07T12:51:06;99467.75;;;14.47;50.08
35655;BME280;21773;50.010;19.972;2023-05-07T12:54:12;99471.41;;;14.41;49.90
35655;BME280;21773;50.010;19.972;2023-05-07T12:57:19;99473.88;;;14.42;50.12
35655;BME280;21773;50.010;19.972;2023-05-07T13:00:35;99471.06;;;14.19;50.35
35655;BME280;21773;50.010;19.972;2023-05-07T13:03:40;99475.44;;;14.20;50.12
35655;BME280;21773;50.010;19.972;2023-05-07T13:06:44;99475.94;;;14.28;50.32
35655;BME280;21773;50.010;19.972;2023-05-07T13:09:47;99482.31;;;14.34;50.19
35655;BME280;21773;50.010;19.972;2023-05-07T13:12:51;99485.56;;;14.43;49.58
35655;BME280;21773;50.010;19.972;2023-05-07T13:15:55;99480.38;;;14.41;49.70
35655;BME280;21773;50.010;19.972;2023-05-07T13:18:59;99484.41;;;14.32;49.84
35655;BME280;21773;50.010;19.972;2023-05-07T13:22:03;99477.09;;;14.21;50.16
35655;BME280;21773;50.010;19.972;2023-05-07T13:25:07;99482.50;;;13.91;50.28
35655;BME280;21773;50.010;19.972;2023-05-07T13:28:11;99484.19;;;13.92;50.59
35655;BME280;21773;50.010;19.972;2023-05-07T13:31:14;99485.00;;;13.93;50.00
35655;BME280;21773;50.010;19.972;2023-05-07T13:34:19;99486.47;;;14.07;50.74
35655;BME280;21773;50.010;19.972;2023-05-07T13:37:22;99485.03;;;14.04;50.04
35655;BME280;21773;50.010;19.972;2023-05-07T13:40:26;99487.66;;;14.11;50.14
35655;BME280;21773;50.010;19.972;2023-05-07T13:43:29;99491.22;;;14.11;50.14
35655;BME280;21773;50.010;19.972;2023-05-07T13:46:33;99475.91;;;14.17;50.17
35655;BME280;21773;50.010;19.972;2023-05-07T13:49:38;99491.22;;;14.23;49.66
35655;BME280;21773;50.010;19.972;2023-05-07T13:52:42;99474.81;;;14.18;50.13
35655;BME280;21773;50.010;19.972;2023-05-07T13:55:48;99486.78;;;14.28;50.02
35655;BME280;21773;50.010;19.972;2023-05-07T13:58:51;99491.69;;;14.38;49.85
35655;BME280;21773;50.010;19.972;2023-05-07T14:02:01;99472.78;;;14.31;49.26
35655;BME280;21773;50.010;19.972;2023-05-07T14:05:07;99491.16;;;14.29;48.77
35655;BME280;21773;50.010;19.972;2023-05-07T14:08:11;99493.94;;;14.23;49.08
35655;BME280;21773;50.010;19.972;2023-05-07T14:11:15;99496.22;;;13.96;49.20
35655;BME280;21773;50.010;19.972;2023-05-07T14:14:19;99502.63;;;13.83;49.59
35655;BME280;21773;50.010;19.972;2023-05-07T14:17:22;99501.59;;;13.66;49.60
35655;BME280;21773;50.010;19.972;2023-05-07T14:20:29;99511.66;;;13.59;50.25
35655;BME280;21773;50.010;19.972;2023-05-07T14:23:33;99505.63;;;13.75;50.18
35655;BME280;21773;50.010;19.972;2023-05-07T14:26:36;99499.75;;;13.78;50.15
35655;BME280;21773;50.010;19.972;2023-05-07T14:29:39;99518.59;;;13.92;49.64
35655;BME280;21773;50.010;19.972;2023-05-07T14:32:43;99525.34;;;14.01;49.45
35655;BME280;21773;50.010;19.972;2023-05-07T14:35:47;99521.47;;;14.08;49.68
35655;BME280;21773;50.010;19.972;2023-05-07T14:38:52;99514.00;;;13.92;49.80
35655;BME280;21773;50.010;19.972;2023-05-07T14:41:57;99526.75;;;14.03;50.19
35655;BME280;21773;50.010;19.972;2023-05-07T14:45:00;99525.34;;;14.01;49.51
35655;BME280;21773;50.010;19.972;2023-05-07T14:48:04;99536.47;;;14.11;49.77
35655;BME280;21773;50.010;19.972;2023-05-07T14:51:08;99538.69;;;14.02;49.37
35655;BME280;21773;50.010;19.972;2023-05-07T14:54:13;99540.97;;;13.87;49.64
35655;BME280;21773;50.010;19.972;2023-05-07T14:57:16;99545.69;;;13.73;50.09
35655;BME280;21773;50.010;19.972;2023-05-07T15:00:20;99544.03;;;13.54;50.46
35655;BME280;21773;50.010;19.972;2023-05-07T15:03:23;99552.09;;;13.61;50.64
35655;BME280;21773;50.010;19.972;2023-05-07T15:06:28;99547.13;;;13.58;50.87
35655;BME280;21773;50.010;19.972;2023-05-07T15:09:32;99544.41;;;13.58;50.79
35655;BME280;21773;50.010;19.972;2023-05-07T15:12:36;99542.09;;;13.61;50.64
35655;BME280;21773;50.010;19.972;2023-05-07T15:15:41;99545.31;;;13.70;50.71
35655;BME280;21773;50.010;19.972;2023-05-07T15:18:44;99550.56;;;13.65;50.60
35655;BME280;21773;50.010;19.972;2023-05-07T15:21:49;99552.03;;;13.67;50.82
35655;BME280;21773;50.010;19.972;2023-05-07T15:24:52;99546.88;;;13.59;51.25
35655;BME280;21773;50.010;19.972;2023-05-07T15:27:56;99548.91;;;13.64;51.15
35655;BME280;21773;50.010;19.972;2023-05-07T15:31:00;99558.09;;;13.44;51.01
35655;BME280;21773;50.010;19.972;2023-05-07T15:34:03;99557.81;;;13.53;51.34
35655;BME280;21773;50.010;19.972;2023-05-07T15:37:08;99557.81;;;13.53;51.02
35655;BME280;21773;50.010;19.972;2023-05-07T15:40:12;99561.03;;;13.43;51.38
35655;BME280;21773;50.010;19.972;2023-05-07T15:43:15;99563.28;;;13.46;51.35
35655;BME280;21773;50.010;19.972;2023-05-07T15:46:19;99576.16;;;13.51;51.50
35655;BME280;21773;50.010;19.972;2023-05-07T15:49:23;99567.81;;;13.52;51.34
35655;BME280;21773;50.010;19.972;2023-05-07T15:52:27;99570.94;;;13.49;51.19
35655;BME280;21773;50.010;19.972;2023-05-07T15:55:31;99575.09;;;13.52;51.49
35655;BME280;21773;50.010;19.972;2023-05-07T15:58:35;99575.78;;;13.47;51.54
35655;BME280;21773;50.010;19.972;2023-05-07T16:01:39;99564.31;;;13.45;51.73
35655;BME280;21773;50.010;19.972;2023-05-07T16:04:50;99564.84;;;13.35;51.58
35655;BME280;21773;50.010;19.972;2023-05-07T16:07:55;99565.66;;;13.36;51.73
35655;BME280;21773;50.010;19.972;2023-05-07T16:10:59;99575.47;;;13.37;51.85